sensor_id;sensor_type;location;lat;lon;timestamp;temperature;humidity
5136;DHT22;2586;48.710;9.202;2023-04-20T00:00:59;4.30;1.00
5136;DHT22;2586;48.710;9.202;2023-04-20T00:03:26;4.30;1.00
5136;DHT22;2586;48.710;9.202;2023-04-20T00:05:52;4.20;1.00
5136;DHT22;2586;48.710;9.202;2023-04-20T00:08:17;4.10;1.00
5136;DHT22;2586;48.710;9.202;2023-04-20T00:10:44;4.10;10.80
5136;DHT22;2586;48.710;9.202;2023-04-20T00:13:10;4.00;35.60
5136;DHT22;2586;48.710;9.202;2023-04-20T00:15:36;3.90;99.90
5136;DHT22;2586;48.710;9.202;2023-04-20T00:18:01;3.90;99.90
5136;DHT22;2586;48.710;9.202;2023-04-20T00:20:27;3.90;99.90
5136;DHT22;2586;48.710;9.202;2023-04-20T00:22:53;3.90;99.90
5136;DHT22;2586;48.710;9.202;2023-04-20T00:25:19;3.90;99.90
5136;DHT22;2586;48.710;9.202;2023-04-20T00:27:45;3.80;99.90
5136;DHT22;2586;48.710;9.202;2023-04-20T00:30:11;3.80;99.90
5136;DHT22;2586;48.710;9.202;2023-04-20T00:32:37;3.70;99.90
5136;DHT22;2586;48.710;9.202;2023-04-20T00:35:03;3.60;1.00
5136;DHT22;2586;48.710;9.202;2023-04-20T00:37:28;3.50;1.00
5136;DHT22;2586;48.710;9.202;2023-04-20T00:39:56;3.40;1.00
5136;DHT22;2586;48.710;9.202;2023-04-20T00:42:22;3.40;99.90
5136;DHT22;2586;48.710;9.202;2023-04-20T00:44:47;3.40;96.80
5136;DHT22;2586;48.710;9.202;2023-04-20T00:47:14;3.40;1.00
5136;DHT22;2586;48.710;9.202;2023-04-20T00:49:40;3.30;1.00
5136;DHT22;2586;48.710;9.202;2023-04-20T00:52:06;3.30;21.50
5136;DHT22;2586;48.710;9.202;2023-04-20T00:54:31;3.20;1.00
5136;DHT22;2586;48.710;9.202;2023-04-20T00:56:58;3.10;19.60
5136;DHT22;2586;48.710;9.202;2023-04-20T00:59:24;3.10;1.00
5136;DHT22;2586;48.710;9.202;2023-04-20T01:01:49;3.10;99.90
5136;DHT22;2586;48.710;9.202;2023-04-20T01:04:15;3.10;1.00
5136;DHT22;2586;48.710;9.202;2023-04-20T01:06:42;3.20;19.40
5136;DHT22;2586;48.710;9.202;2023-04-20T01:09:07;3.20;1.00
5136;DHT22;2586;48.710;9.202;2023-04-20T01:11:34;3.30;1.00
5136;DHT22;2586;48.710;9.202;2023-04-20T01:14:00;3.30;1.00
5136;DHT22;2586;48.710;9.202;2023-04-20T01:16:25;3.40;1.00
5136;DHT22;2586;48.710;9.202;2023-04-20T01:18:52;3.40;1.00
5136;DHT22;2586;48.710;9.202;2023-04-20T01:21:19;3.40;1.00
5136;DHT22;2586;48.710;9.202;2023-04-20T01:23:46;3.40;1.00
5136;DHT22;2586;48.710;9.202;2023-04-20T01:26:15;3.40;1.00
5136;DHT22;2586;48.710;9.202;2023-04-20T01:28:42;3.30;1.00
5136;DHT22;2586;48.710;9.202;2023-04-20T01:31:08;3.30;1.00
5136;DHT22;2586;48.710;9.202;2023-04-20T01:33:35;3.30;1.00
5136;DHT22;2586;48.710;9.202;2023-04-20T01:36:01;3.30;1.00
5136;DHT22;2586;48.710;9.202;2023-04-20T01:38:27;3.30;1.00
5136;DHT22;2586;48.710;9.202;2023-04-20T01:40:55;3.20;1.00
5136;DHT22;2586;48.710;9.202;2023-04-20T01:43:21;3.10;1.00
5136;DHT22;2586;48.710;9.202;2023-04-20T01:45:47;3.00;96.80
5136;DHT22;2586;48.710;9.202;2023-04-20T01:48:12;2.90;99.90
5136;DHT22;2586;48.710;9.202;2023-04-20T01:50:38;3.00;99.90
5136;DHT22;2586;48.710;9.202;2023-04-20T01:53:03;3.00;1.00
5136;DHT22;2586;48.710;9.202;2023-04-20T01:55:29;2.90;99.90
5136;DHT22;2586;48.710;9.202;2023-04-20T01:57:55;2.80;99.90
5136;DHT22;2586;48.710;9.202;2023-04-20T02:00:20;2.70;1.00
5136;DHT22;2586;48.710;9.202;2023-04-20T02:02:46;2.50;1.00
5136;DHT22;2586;48.710;9.202;2023-04-20T02:05:11;2.30;65.90
5136;DHT22;2586;48.710;9.202;2023-04-20T02:07:37;2.20;99.90
5136;DHT22;2586;48.710;9.202;2023-04-20T02:10:03;2.00;1.00
5136;DHT22;2586;48.710;9.202;2023-04-20T02:12:29;1.90;1.00
5136;DHT22;2586;48.710;9.202;2023-04-20T02:14:54;1.90;99.90
5136;DHT22;2586;48.710;9.202;2023-04-20T02:17:20;1.90;1.00
5136;DHT22;2586;48.710;9.202;2023-04-20T02:19:46;1.90;99.90
5136;DHT22;2586;48.710;9.202;2023-04-20T02:22:12;1.80;99.90
5136;DHT22;2586;48.710;9.202;2023-04-20T02:24:37;1.80;99.90
5136;DHT22;2586;48.710;9.202;2023-04-20T02:27:03;1.70;99.90
5136;DHT22;2586;48.710;9.202;2023-04-20T02:29:29;1.80;1.00
5136;DHT22;2586;48.710;9.202;2023-04-20T02:31:54;1.80;99.90
5136;DHT22;2586;48.710;9.202;2023-04-20T02:34:20;1.80;1.00
5136;DHT22;2586;48.710;9.202;2023-04-20T02:36:46;1.80;99.90
5136;DHT22;2586;48.710;9.202;2023-04-20T02:39:13;1.70;1.00
5136;DHT22;2586;48.710;9.202;2023-04-20T02:41:38;1.70;1.00
5136;DHT22;2586;48.710;9.202;2023-04-20T02:44:04;1.70;99.90
5136;DHT22;2586;48.710;9.202;2023-04-20T02:46:30;1.70;1.00
5136;DHT22;2586;48.710;9.202;2023-04-20T02:48:55;1.70;99.90
5136;DHT22;2586;48.710;9.202;2023-04-20T02:51:21;1.70;99.90
5136;DHT22;2586;48.710;9.202;2023-04-20T02:53:46;1.60;99.90
5136;DHT22;2586;48.710;9.202;2023-04-20T02:56:12;1.50;99.90
5136;DHT22;2586;48.710;9.202;2023-04-20T02:58:38;1.50;1.00
5136;DHT22;2586;48.710;9.202;2023-04-20T03:01:03;1.60;1.00
5136;DHT22;2586;48.710;9.202;2023-04-20T03:03:29;1.60;1.00
5136;DHT22;2586;48.710;9.202;2023-04-20T03:05:55;1.60;1.00
5136;DHT22;2586;48.710;9.202;2023-04-20T03:08:21;1.60;1.00
5136;DHT22;2586;48.710;9.202;2023-04-20T03:10:47;1.50;1.00
5136;DHT22;2586;48.710;9.202;2023-04-20T03:13:13;1.50;62.20
5136;DHT22;2586;48.710;9.202;2023-04-20T03:15:39;1.50;78.20
5136;DHT22;2586;48.710;9.202;2023-04-20T03:18:05;1.40;99.90
5136;DHT22;2586;48.710;9.202;2023-04-20T03:20:30;1.40;1.00
5136;DHT22;2586;48.710;9.202;2023-04-20T03:22:56;1.30;99.90
5136;DHT22;2586;48.710;9.202;2023-04-20T03:25:22;1.30;99.90
5136;DHT22;2586;48.710;9.202;2023-04-20T03:27:48;1.20;99.90
5136;DHT22;2586;48.710;9.202;2023-04-20T03:30:14;1.00;1.00
5136;DHT22;2586;48.710;9.202;2023-04-20T03:32:40;1.10;99.90
5136;DHT22;2586;48.710;9.202;2023-04-20T03:35:06;1.00;99.90
5136;DHT22;2586;48.710;9.202;2023-04-20T03:37:36;1.00;1.00
5136;DHT22;2586;48.710;9.202;2023-04-20T03:40:01;1.00;1.00
5136;DHT22;2586;48.710;9.202;2023-04-20T03:42:27;1.00;99.90
5136;DHT22;2586;48.710;9.202;2023-04-20T03:44:54;1.00;99.90
5136;DHT22;2586;48.710;9.202;2023-04-20T03:47:20;1.00;1.00
5136;DHT22;2586;48.710;9.202;2023-04-20T03:49:45;0.80;99.90
5136;DHT22;2586;48.710;9.202;2023-04-20T03:52:11;0.70;1.00
5136;DHT22;2586;48.710;9.202;2023-04-20T03:54:36;0.90;99.90
5136;DHT22;2586;48.710;9.202;2023-04-20T03:57:02;0.90;1.00
5136;DHT22;2586;48.710;9.202;2023-04-20T03:59:28;0.90;1.00
5136;DHT22;2586;48.710;9.202;2023-04-20T04:01:53;1.00;99.90
5136;DHT22;2586;48.710;9.202;2023-04-20T04:04:19;1.00;99.90
5136;DHT22;2586;48.710;9.202;2023-04-20T04:06:44;0.90;1.00
5136;DHT22;2586;48.710;9.202;2023-04-20T04:09:10;0.70;1.00
5136;DHT22;2586;48.710;9.202;2023-04-20T04:11:36;0.70;4.20
5136;DHT22;2586;48.710;9.202;2023-04-20T04:14:01;0.70;1.00
5136;DHT22;2586;48.710;9.202;2023-04-20T04:16:30;0.60;99.90
5136;DHT22;2586;48.710;9.202;2023-04-20T04:18:55;0.60;99.90
5136;DHT22;2586;48.710;9.202;2023-04-20T04:21:21;0.50;1.00
5136;DHT22;2586;48.710;9.202;2023-04-20T04:23:47;0.60;99.90
5136;DHT22;2586;48.710;9.202;2023-04-20T04:26:13;0.60;99.90
5136;DHT22;2586;48.710;9.202;2023-04-20T04:28:38;0.60;99.90
5136;DHT22;2586;48.710;9.202;2023-04-20T04:31:05;0.70;99.90
5136;DHT22;2586;48.710;9.202;2023-04-20T04:33:33;0.70;99.90
5136;DHT22;2586;48.710;9.202;2023-04-20T04:35:59;0.70;99.90
5136;DHT22;2586;48.710;9.202;2023-04-20T04:38:25;0.80;1.00
5136;DHT22;2586;48.710;9.202;2023-04-20T04:40:52;0.80;1.00
5136;DHT22;2586;48.710;9.202;2023-04-20T04:43:18;0.80;1.00
5136;DHT22;2586;48.710;9.202;2023-04-20T04:45:44;0.90;99.90
5136;DHT22;2586;48.710;9.202;2023-04-20T04:48:10;0.80;99.90
5136;DHT22;2586;48.710;9.202;2023-04-20T04:50:37;0.80;99.90
5136;DHT22;2586;48.710;9.202;2023-04-20T04:53:03;0.90;1.00
5136;DHT22;2586;48.710;9.202;2023-04-20T04:55:28;0.90;99.90
5136;DHT22;2586;48.710;9.202;2023-04-20T04:57:54;0.80;99.90
5136;DHT22;2586;48.710;9.202;2023-04-20T05:00:20;0.80;1.00
5136;DHT22;2586;48.710;9.202;2023-04-20T05:02:47;1.00;47.40
5136;DHT22;2586;48.710;9.202;2023-04-20T05:05:12;1.00;1.00
5136;DHT22;2586;48.710;9.202;2023-04-20T05:07:38;1.10;99.90
5136;DHT22;2586;48.710;9.202;2023-04-20T05:10:05;1.20;1.00
5136;DHT22;2586;48.710;9.202;2023-04-20T05:12:31;1.20;99.90
5136;DHT22;2586;48.710;9.202;2023-04-20T05:14:57;1.30;82.30
5136;DHT22;2586;48.710;9.202;2023-04-20T05:17:22;1.40;1.00
5136;DHT22;2586;48.710;9.202;2023-04-20T05:19:48;1.50;1.00
5136;DHT22;2586;48.710;9.202;2023-04-20T05:22:14;1.50;1.00
5136;DHT22;2586;48.710;9.202;2023-04-20T05:24:39;1.60;1.00
5136;DHT22;2586;48.710;9.202;2023-04-20T05:27:06;1.70;1.00
5136;DHT22;2586;48.710;9.202;2023-04-20T05:29:32;1.80;1.00
5136;DHT22;2586;48.710;9.202;2023-04-20T05:31:57;1.90;1.00
5136;DHT22;2586;48.710;9.202;2023-04-20T05:34:23;2.10;99.90
5136;DHT22;2586;48.710;9.202;2023-04-20T05:36:50;2.20;59.00
5136;DHT22;2586;48.710;9.202;2023-04-20T05:39:17;2.30;1.00
5136;DHT22;2586;48.710;9.202;2023-04-20T05:41:42;2.40;1.00
5136;DHT22;2586;48.710;9.202;2023-04-20T05:44:08;2.50;1.00
5136;DHT22;2586;48.710;9.202;2023-04-20T05:46:33;2.50;1.00
5136;DHT22;2586;48.710;9.202;2023-04-20T05:48:59;2.60;99.90
5136;DHT22;2586;48.710;9.202;2023-04-20T05:51:25;2.70;1.00
5136;DHT22;2586;48.710;9.202;2023-04-20T05:53:53;2.70;99.90
5136;DHT22;2586;48.710;9.202;2023-04-20T05:56:18;2.80;99.90
5136;DHT22;2586;48.710;9.202;2023-04-20T05:58:44;2.80;98.40
5136;DHT22;2586;48.710;9.202;2023-04-20T06:01:10;2.90;86.80
5136;DHT22;2586;48.710;9.202;2023-04-20T06:03:36;3.10;1.00
5136;DHT22;2586;48.710;9.202;2023-04-20T06:06:01;3.20;1.00
5136;DHT22;2586;48.710;9.202;2023-04-20T06:08:27;3.40;99.90
5136;DHT22;2586;48.710;9.202;2023-04-20T06:10:55;3.50;19.10
5136;DHT22;2586;48.710;9.202;2023-04-20T06:13:22;3.70;1.00
5136;DHT22;2586;48.710;9.202;2023-04-20T06:15:48;3.80;1.00
5136;DHT22;2586;48.710;9.202;2023-04-20T06:18:14;3.80;99.90
5136;DHT22;2586;48.710;9.202;2023-04-20T06:20:39;3.80;99.90
5136;DHT22;2586;48.710;9.202;2023-04-20T06:23:07;3.90;99.90
5136;DHT22;2586;48.710;9.202;2023-04-20T06:25:35;3.90;99.90
5136;DHT22;2586;48.710;9.202;2023-04-20T06:28:01;3.90;99.90
5136;DHT22;2586;48.710;9.202;2023-04-20T06:30:26;4.00;99.90
5136;DHT22;2586;48.710;9.202;2023-04-20T06:32:52;4.10;99.90
5136;DHT22;2586;48.710;9.202;2023-04-20T06:35:17;4.20;1.00
5136;DHT22;2586;48.710;9.202;2023-04-20T06:37:43;4.40;1.00
5136;DHT22;2586;48.710;9.202;2023-04-20T06:40:08;4.50;99.90
5136;DHT22;2586;48.710;9.202;2023-04-20T06:42:34;4.80;99.90
5136;DHT22;2586;48.710;9.202;2023-04-20T06:45:00;5.00;99.90
5136;DHT22;2586;48.710;9.202;2023-04-20T06:47:26;5.30;28.50
5136;DHT22;2586;48.710;9.202;2023-04-20T06:49:57;5.60;99.90
5136;DHT22;2586;48.710;9.202;2023-04-20T06:52:23;5.90;99.90
5136;DHT22;2586;48.710;9.202;2023-04-20T06:54:48;6.00;99.90
5136;DHT22;2586;48.710;9.202;2023-04-20T06:57:14;6.20;99.90
5136;DHT22;2586;48.710;9.202;2023-04-20T06:59:39;6.30;12.00
5136;DHT22;2586;48.710;9.202;2023-04-20T07:02:05;6.40;42.50
5136;DHT22;2586;48.710;9.202;2023-04-20T07:04:31;6.40;99.90
5136;DHT22;2586;48.710;9.202;2023-04-20T07:06:56;6.40;99.90
5136;DHT22;2586;48.710;9.202;2023-04-20T07:09:22;6.40;1.00
5136;DHT22;2586;48.710;9.202;2023-04-20T07:11:48;6.40;99.90
5136;DHT22;2586;48.710;9.202;2023-04-20T07:14:14;6.10;1.00
5136;DHT22;2586;48.710;9.202;2023-04-20T07:16:40;5.80;99.90
5136;DHT22;2586;48.710;9.202;2023-04-20T07:19:05;5.90;99.90
5136;DHT22;2586;48.710;9.202;2023-04-20T07:21:31;5.90;99.90
5136;DHT22;2586;48.710;9.202;2023-04-20T07:23:56;5.90;99.90
5136;DHT22;2586;48.710;9.202;2023-04-20T07:26:24;6.00;99.90
5136;DHT22;2586;48.710;9.202;2023-04-20T07:28:50;6.20;99.90
5136;DHT22;2586;48.710;9.202;2023-04-20T07:31:16;6.40;99.90
5136;DHT22;2586;48.710;9.202;2023-04-20T07:33:42;6.50;10.70
5136;DHT22;2586;48.710;9.202;2023-04-20T07:36:08;6.70;1.00
5136;DHT22;2586;48.710;9.202;2023-04-20T07:38:33;6.80;1.00
5136;DHT22;2586;48.710;9.202;2023-04-20T07:40:59;6.90;1.00
5136;DHT22;2586;48.710;9.202;2023-04-20T07:43:25;6.70;1.00
5136;DHT22;2586;48.710;9.202;2023-04-20T07:45:51;6.60;1.00
5136;DHT22;2586;48.710;9.202;2023-04-20T07:48:16;6.40;1.00
5136;DHT22;2586;48.710;9.202;2023-04-20T07:50:42;6.20;1.00
5136;DHT22;2586;48.710;9.202;2023-04-20T07:53:08;6.10;99.90
5136;DHT22;2586;48.710;9.202;2023-04-20T07:55:33;6.10;99.90
5136;DHT22;2586;48.710;9.202;2023-04-20T07:57:59;6.00;18.80
5136;DHT22;2586;48.710;9.202;2023-04-20T08:00:25;6.00;99.90
5136;DHT22;2586;48.710;9.202;2023-04-20T08:02:51;5.90;1.00
5136;DHT22;2586;48.710;9.202;2023-04-20T08:05:17;5.80;99.90
5136;DHT22;2586;48.710;9.202;2023-04-20T08:07:42;5.80;99.90
5136;DHT22;2586;48.710;9.202;2023-04-20T08:10:08;5.80;99.90
5136;DHT22;2586;48.710;9.202;2023-04-20T08:12:35;5.70;99.90
5136;DHT22;2586;48.710;9.202;2023-04-20T08:15:01;5.80;99.90
5136;DHT22;2586;48.710;9.202;2023-04-20T08:17:29;5.80;99.90
5136;DHT22;2586;48.710;9.202;2023-04-20T08:19:55;5.80;99.90
5136;DHT22;2586;48.710;9.202;2023-04-20T08:22:20;5.80;99.90
5136;DHT22;2586;48.710;9.202;2023-04-20T08:24:48;5.80;99.90
5136;DHT22;2586;48.710;9.202;2023-04-20T08:27:14;5.90;99.90
5136;DHT22;2586;48.710;9.202;2023-04-20T08:29:39;6.00;1.00
5136;DHT22;2586;48.710;9.202;2023-04-20T08:32:05;6.00;99.90
5136;DHT22;2586;48.710;9.202;2023-04-20T08:34:33;6.00;82.80
5136;DHT22;2586;48.710;9.202;2023-04-20T08:36:59;5.80;99.90
5136;DHT22;2586;48.710;9.202;2023-04-20T08:39:25;5.80;1.00
5136;DHT22;2586;48.710;9.202;2023-04-20T08:41:50;5.80;1.00
5136;DHT22;2586;48.710;9.202;2023-04-20T08:44:20;5.70;99.90
5136;DHT22;2586;48.710;9.202;2023-04-20T08:46:46;5.80;1.00
5136;DHT22;2586;48.710;9.202;2023-04-20T08:49:14;5.90;1.00
5136;DHT22;2586;48.710;9.202;2023-04-20T08:51:41;5.90;1.00
5136;DHT22;2586;48.710;9.202;2023-04-20T08:54:06;5.80;1.00
5136;DHT22;2586;48.710;9.202;2023-04-20T08:56:37;5.80;1.00
5136;DHT22;2586;48.710;9.202;2023-04-20T08:59:03;5.70;99.90
5136;DHT22;2586;48.710;9.202;2023-04-20T09:01:30;5.60;1.00
5136;DHT22;2586;48.710;9.202;2023-04-20T09:03:56;5.60;1.00
5136;DHT22;2586;48.710;9.202;2023-04-20T09:06:21;5.60;99.90
5136;DHT22;2586;48.710;9.202;2023-04-20T09:08:47;5.50;44.30
5136;DHT22;2586;48.710;9.202;2023-04-20T09:11:20;5.60;48.90
5136;DHT22;2586;48.710;9.202;2023-04-20T09:13:57;5.60;47.90
5136;DHT22;2586;48.710;9.202;2023-04-20T09:16:24;5.60;99.90
5136;DHT22;2586;48.710;9.202;2023-04-20T09:18:54;5.60;5.40
5136;DHT22;2586;48.710;9.202;2023-04-20T09:21:20;5.70;99.90
5136;DHT22;2586;48.710;9.202;2023-04-20T09:24:01;5.70;99.90
5136;DHT22;2586;48.710;9.202;2023-04-20T09:26:34;5.60;99.90
5136;DHT22;2586;48.710;9.202;2023-04-20T09:29:01;5.70;1.00
5136;DHT22;2586;48.710;9.202;2023-04-20T09:31:28;5.80;1.00
5136;DHT22;2586;48.710;9.202;2023-04-20T09:33:58;5.90;99.90
5136;DHT22;2586;48.710;9.202;2023-04-20T09:36:24;5.90;1.00
5136;DHT22;2586;48.710;9.202;2023-04-20T09:39:03;6.00;99.90
5136;DHT22;2586;48.710;9.202;2023-04-20T09:41:30;6.00;99.90
5136;DHT22;2586;48.710;9.202;2023-04-20T09:43:57;6.00;16.30
5136;DHT22;2586;48.710;9.202;2023-04-20T09:46:24;6.00;1.00
5136;DHT22;2586;48.710;9.202;2023-04-20T09:48:52;6.00;1.00
5136;DHT22;2586;48.710;9.202;2023-04-20T09:51:18;6.10;62.00
5136;DHT22;2586;48.710;9.202;2023-04-20T09:53:44;6.00;99.90
5136;DHT22;2586;48.710;9.202;2023-04-20T09:56:11;6.10;38.80
5136;DHT22;2586;48.710;9.202;2023-04-20T09:58:37;6.00;1.00
5136;DHT22;2586;48.710;9.202;2023-04-20T10:01:02;6.10;99.90
5136;DHT22;2586;48.710;9.202;2023-04-20T10:03:28;6.00;1.00
5136;DHT22;2586;48.710;9.202;2023-04-20T10:05:54;6.00;1.00
5136;DHT22;2586;48.710;9.202;2023-04-20T10:08:22;6.00;1.00
5136;DHT22;2586;48.710;9.202;2023-04-20T10:10:49;6.00;1.00
5136;DHT22;2586;48.710;9.202;2023-04-20T10:13:16;5.90;99.90
5136;DHT22;2586;48.710;9.202;2023-04-20T10:15:46;5.90;1.00
5136;DHT22;2586;48.710;9.202;2023-04-20T10:18:18;5.90;40.80
5136;DHT22;2586;48.710;9.202;2023-04-20T10:20:45;5.90;99.90
5136;DHT22;2586;48.710;9.202;2023-04-20T10:23:11;5.90;1.00
5136;DHT22;2586;48.710;9.202;2023-04-20T10:25:40;6.00;99.90
5136;DHT22;2586;48.710;9.202;2023-04-20T10:28:06;6.10;99.90
5136;DHT22;2586;48.710;9.202;2023-04-20T10:30:35;6.10;1.00
5136;DHT22;2586;48.710;9.202;2023-04-20T10:33:11;6.20;1.00
5136;DHT22;2586;48.710;9.202;2023-04-20T10:35:48;6.30;1.00
5136;DHT22;2586;48.710;9.202;2023-04-20T10:38:14;6.30;1.00
5136;DHT22;2586;48.710;9.202;2023-04-20T10:40:40;6.30;29.50
5136;DHT22;2586;48.710;9.202;2023-04-20T10:43:19;6.40;99.90
5136;DHT22;2586;48.710;9.202;2023-04-20T10:45:46;6.40;1.00
5136;DHT22;2586;48.710;9.202;2023-04-20T10:48:12;6.50;99.90
5136;DHT22;2586;48.710;9.202;2023-04-20T10:50:38;6.60;99.90
5136;DHT22;2586;48.710;9.202;2023-04-20T10:53:04;6.80;1.00
5136;DHT22;2586;48.710;9.202;2023-04-20T10:55:30;6.90;99.90
5136;DHT22;2586;48.710;9.202;2023-04-20T10:57:56;6.80;1.00
5136;DHT22;2586;48.710;9.202;2023-04-20T11:00:26;6.90;99.90
5136;DHT22;2586;48.710;9.202;2023-04-20T11:02:55;7.00;1.00
5136;DHT22;2586;48.710;9.202;2023-04-20T11:05:23;7.00;1.00
5136;DHT22;2586;48.710;9.202;2023-04-20T11:10:18;6.90;99.90
5136;DHT22;2586;48.710;9.202;2023-04-20T11:12:44;6.80;1.00
5136;DHT22;2586;48.710;9.202;2023-04-20T11:15:10;6.80;1.00
5136;DHT22;2586;48.710;9.202;2023-04-20T11:17:36;6.90;99.90
5136;DHT22;2586;48.710;9.202;2023-04-20T11:20:07;7.00;1.00
5136;DHT22;2586;48.710;9.202;2023-04-20T11:22:35;7.00;99.90
5136;DHT22;2586;48.710;9.202;2023-04-20T11:25:06;7.00;29.30
5136;DHT22;2586;48.710;9.202;2023-04-20T11:27:35;7.10;99.90
5136;DHT22;2586;48.710;9.202;2023-04-20T11:30:03;7.00;26.10
5136;DHT22;2586;48.710;9.202;2023-04-20T11:32:30;7.10;1.00
5136;DHT22;2586;48.710;9.202;2023-04-20T11:34:59;7.20;1.00
5136;DHT22;2586;48.710;9.202;2023-04-20T11:37:25;7.20;1.00
5136;DHT22;2586;48.710;9.202;2023-04-20T11:40:04;7.30;99.90
5136;DHT22;2586;48.710;9.202;2023-04-20T11:42:37;7.30;1.00
5136;DHT22;2586;48.710;9.202;2023-04-20T11:45:03;7.30;99.90
5136;DHT22;2586;48.710;9.202;2023-04-20T11:47:29;7.10;99.90
5136;DHT22;2586;48.710;9.202;2023-04-20T11:49:55;7.10;99.90
5136;DHT22;2586;48.710;9.202;2023-04-20T11:52:20;7.10;99.90
5136;DHT22;2586;48.710;9.202;2023-04-20T11:54:46;7.00;99.90
5136;DHT22;2586;48.710;9.202;2023-04-20T11:57:11;7.00;99.90
5136;DHT22;2586;48.710;9.202;2023-04-20T11:59:37;6.90;1.00
5136;DHT22;2586;48.710;9.202;2023-04-20T12:02:03;6.90;99.90
5136;DHT22;2586;48.710;9.202;2023-04-20T12:04:29;6.90;99.90
5136;DHT22;2586;48.710;9.202;2023-04-20T12:06:55;6.80;1.00
5136;DHT22;2586;48.710;9.202;2023-04-20T12:09:24;6.80;29.00
5136;DHT22;2586;48.710;9.202;2023-04-20T12:11:50;6.80;1.00
5136;DHT22;2586;48.710;9.202;2023-04-20T12:14:15;6.80;1.00
5136;DHT22;2586;48.710;9.202;2023-04-20T12:16:41;6.90;1.00
5136;DHT22;2586;48.710;9.202;2023-04-20T12:19:06;6.90;99.90
5136;DHT22;2586;48.710;9.202;2023-04-20T12:21:33;7.00;99.90
5136;DHT22;2586;48.710;9.202;2023-04-20T12:23:59;6.90;99.90
5136;DHT22;2586;48.710;9.202;2023-04-20T12:26:25;7.00;1.00
5136;DHT22;2586;48.710;9.202;2023-04-20T12:28:51;7.00;99.90
5136;DHT22;2586;48.710;9.202;2023-04-20T12:31:16;7.00;44.20
5136;DHT22;2586;48.710;9.202;2023-04-20T12:33:42;7.00;99.90
5136;DHT22;2586;48.710;9.202;2023-04-20T12:36:08;7.00;99.90
5136;DHT22;2586;48.710;9.202;2023-04-20T12:38:34;7.00;18.40
5136;DHT22;2586;48.710;9.202;2023-04-20T12:41:00;7.10;1.00
5136;DHT22;2586;48.710;9.202;2023-04-20T12:43:26;7.10;1.00
5136;DHT22;2586;48.710;9.202;2023-04-20T12:45:52;7.10;99.90
5136;DHT22;2586;48.710;9.202;2023-04-20T12:48:18;7.10;1.00
5136;DHT22;2586;48.710;9.202;2023-04-20T12:50:44;7.30;99.90
5136;DHT22;2586;48.710;9.202;2023-04-20T12:53:09;7.40;99.90
5136;DHT22;2586;48.710;9.202;2023-04-20T12:55:35;7.40;99.90
5136;DHT22;2586;48.710;9.202;2023-04-20T12:58:02;7.40;99.90
5136;DHT22;2586;48.710;9.202;2023-04-20T13:00:27;7.50;99.90
5136;DHT22;2586;48.710;9.202;2023-04-20T13:02:53;7.50;99.90
5136;DHT22;2586;48.710;9.202;2023-04-20T13:05:18;7.50;99.90
5136;DHT22;2586;48.710;9.202;2023-04-20T13:07:44;7.50;47.80
5136;DHT22;2586;48.710;9.202;2023-04-20T13:10:10;7.40;1.00
5136;DHT22;2586;48.710;9.202;2023-04-20T13:12:36;7.30;99.90
5136;DHT22;2586;48.710;9.202;2023-04-20T13:15:01;7.30;1.00
5136;DHT22;2586;48.710;9.202;2023-04-20T13:17:27;7.30;1.00
5136;DHT22;2586;48.710;9.202;2023-04-20T13:19:53;7.30;1.00
5136;DHT22;2586;48.710;9.202;2023-04-20T13:22:18;7.20;99.90
5136;DHT22;2586;48.710;9.202;2023-04-20T13:24:44;7.20;99.90
5136;DHT22;2586;48.710;9.202;2023-04-20T13:27:09;7.20;99.90
5136;DHT22;2586;48.710;9.202;2023-04-20T13:29:35;7.30;1.00
5136;DHT22;2586;48.710;9.202;2023-04-20T13:32:00;7.40;99.90
5136;DHT22;2586;48.710;9.202;2023-04-20T13:34:26;7.30;99.90
5136;DHT22;2586;48.710;9.202;2023-04-20T13:36:52;7.20;99.90
5136;DHT22;2586;48.710;9.202;2023-04-20T13:39:18;7.30;1.00
5136;DHT22;2586;48.710;9.202;2023-04-20T13:41:46;7.30;1.00
5136;DHT22;2586;48.710;9.202;2023-04-20T13:44:12;7.20;1.00
5136;DHT22;2586;48.710;9.202;2023-04-20T13:46:41;7.20;1.00
5136;DHT22;2586;48.710;9.202;2023-04-20T13:49:08;7.20;1.00
5136;DHT22;2586;48.710;9.202;2023-04-20T13:51:33;7.20;99.90
5136;DHT22;2586;48.710;9.202;2023-04-20T13:53:59;7.20;1.00
5136;DHT22;2586;48.710;9.202;2023-04-20T13:56:25;7.10;1.00
5136;DHT22;2586;48.710;9.202;2023-04-20T13:58:50;7.10;99.90
5136;DHT22;2586;48.710;9.202;2023-04-20T14:01:16;7.20;1.00
5136;DHT22;2586;48.710;9.202;2023-04-20T14:03:42;7.30;1.00
5136;DHT22;2586;48.710;9.202;2023-04-20T14:06:08;7.30;99.90
5136;DHT22;2586;48.710;9.202;2023-04-20T14:08:34;7.30;1.00
5136;DHT22;2586;48.710;9.202;2023-04-20T14:11:00;7.20;99.90
5136;DHT22;2586;48.710;9.202;2023-04-20T14:13:26;7.20;99.90
5136;DHT22;2586;48.710;9.202;2023-04-20T14:15:52;7.10;1.00
5136;DHT22;2586;48.710;9.202;2023-04-20T14:18:18;7.10;99.90
5136;DHT22;2586;48.710;9.202;2023-04-20T14:20:44;7.10;99.90
5136;DHT22;2586;48.710;9.202;2023-04-20T14:23:10;7.20;99.90
5136;DHT22;2586;48.710;9.202;2023-04-20T14:25:35;7.10;1.00
5136;DHT22;2586;48.710;9.202;2023-04-20T14:28:01;7.10;1.00
5136;DHT22;2586;48.710;9.202;2023-04-20T14:30:27;7.00;1.00
5136;DHT22;2586;48.710;9.202;2023-04-20T14:32:57;7.10;1.00
5136;DHT22;2586;48.710;9.202;2023-04-20T14:35:24;7.10;1.00
5136;DHT22;2586;48.710;9.202;2023-04-20T14:37:50;7.10;99.90
5136;DHT22;2586;48.710;9.202;2023-04-20T14:40:16;7.10;99.90
5136;DHT22;2586;48.710;9.202;2023-04-20T14:42:42;7.10;1.00
5136;DHT22;2586;48.710;9.202;2023-04-20T14:45:08;7.10;99.90
5136;DHT22;2586;48.710;9.202;2023-04-20T14:47:34;7.10;99.90
5136;DHT22;2586;48.710;9.202;2023-04-20T14:49:59;7.10;1.00
5136;DHT22;2586;48.710;9.202;2023-04-20T14:52:25;6.90;1.00
5136;DHT22;2586;48.710;9.202;2023-04-20T14:54:51;6.90;1.00
5136;DHT22;2586;48.710;9.202;2023-04-20T14:57:17;6.90;1.00
5136;DHT22;2586;48.710;9.202;2023-04-20T14:59:42;6.90;1.00
5136;DHT22;2586;48.710;9.202;2023-04-20T15:02:08;6.80;91.40
5136;DHT22;2586;48.710;9.202;2023-04-20T15:04:33;6.70;1.00
5136;DHT22;2586;48.710;9.202;2023-04-20T15:06:59;6.70;1.00
5136;DHT22;2586;48.710;9.202;2023-04-20T15:09:25;6.80;99.90
5136;DHT22;2586;48.710;9.202;2023-04-20T15:11:50;6.70;1.00
5136;DHT22;2586;48.710;9.202;2023-04-20T15:14:16;6.70;99.90
5136;DHT22;2586;48.710;9.202;2023-04-20T15:16:41;6.70;99.90
5136;DHT22;2586;48.710;9.202;2023-04-20T15:19:07;6.70;99.90
5136;DHT22;2586;48.710;9.202;2023-04-20T15:21:32;6.60;1.00
5136;DHT22;2586;48.710;9.202;2023-04-20T15:23:58;6.60;1.00
5136;DHT22;2586;48.710;9.202;2023-04-20T15:26:24;6.60;1.00
5136;DHT22;2586;48.710;9.202;2023-04-20T15:28:50;6.60;1.00
5136;DHT22;2586;48.710;9.202;2023-04-20T15:31:16;6.60;1.00
5136;DHT22;2586;48.710;9.202;2023-04-20T15:33:43;6.60;1.00
5136;DHT22;2586;48.710;9.202;2023-04-20T15:36:09;6.60;1.00
5136;DHT22;2586;48.710;9.202;2023-04-20T15:38:35;6.60;1.00
5136;DHT22;2586;48.710;9.202;2023-04-20T15:41:00;6.60;1.00
5136;DHT22;2586;48.710;9.202;2023-04-20T15:43:26;6.70;32.00
5136;DHT22;2586;48.710;9.202;2023-04-20T15:45:51;6.70;66.10
5136;DHT22;2586;48.710;9.202;2023-04-20T15:48:17;6.70;12.80
5136;DHT22;2586;48.710;9.202;2023-04-20T15:50:43;6.70;43.70
5136;DHT22;2586;48.710;9.202;2023-04-20T15:53:08;6.70;45.60
5136;DHT22;2586;48.710;9.202;2023-04-20T15:55:38;6.60;1.00
5136;DHT22;2586;48.710;9.202;2023-04-20T15:58:03;6.50;1.00
5136;DHT22;2586;48.710;9.202;2023-04-20T16:00:29;6.50;1.00
5136;DHT22;2586;48.710;9.202;2023-04-20T16:02:55;6.50;1.00
5136;DHT22;2586;48.710;9.202;2023-04-20T16:05:22;6.50;32.20
5136;DHT22;2586;48.710;9.202;2023-04-20T16:07:48;6.50;33.70
5136;DHT22;2586;48.710;9.202;2023-04-20T16:10:14;6.50;19.00
5136;DHT22;2586;48.710;9.202;2023-04-20T16:12:39;6.40;12.50
5136;DHT22;2586;48.710;9.202;2023-04-20T16:15:05;6.40;10.10
5136;DHT22;2586;48.710;9.202;2023-04-20T16:17:31;6.40;33.70
5136;DHT22;2586;48.710;9.202;2023-04-20T16:19:56;6.40;43.90